createdAt,value
2022-12-18T00:01:29.892Z,14.38
2022-12-18T00:03:57.256Z,13.65
2022-12-18T00:06:27.249Z,13.30
2022-12-18T00:08:54.671Z,13.40
2022-12-18T00:11:24.242Z,12.57
2022-12-18T00:13:51.387Z,12.95
2022-12-18T00:16:21.987Z,14.30
2022-12-18T00:18:50.990Z,13.95
2022-12-18T00:21:18.963Z,13.38
2022-12-18T00:23:47.168Z,14.35
2022-12-18T00:26:23.014Z,14.35
2022-12-18T00:28:53.902Z,12.85
2022-12-18T00:31:23.638Z,13.95
2022-12-18T00:33:55.370Z,14.40
2022-12-18T00:36:32.405Z,15.20
2022-12-18T00:39:02.265Z,13.13
2022-12-18T00:41:56.277Z,12.85
2022-12-18T00:44:23.331Z,13.20
2022-12-18T00:46:51.522Z,13.93
2022-12-18T00:49:20.524Z,14.00
2022-12-18T00:51:48.092Z,14.85
2022-12-18T00:54:15.830Z,14.90
2022-12-18T00:56:49.387Z,15.10
2022-12-18T00:59:20.558Z,15.00
2022-12-18T01:01:48.176Z,14.75
2022-12-18T01:04:16.103Z,15.25
2022-12-18T01:06:45.946Z,13.05
2022-12-18T01:09:13.229Z,14.57
2022-12-18T01:11:40.753Z,14.27
2022-12-18T01:14:08.481Z,15.98
2022-12-18T01:16:38.690Z,14.50
2022-12-18T01:19:05.729Z,14.23
2022-12-18T01:21:33.536Z,16.02
2022-12-18T01:24:05.937Z,15.25
2022-12-18T01:26:33.204Z,15.25
2022-12-18T01:29:00.457Z,14.18
2022-12-18T01:31:30.506Z,15.13
2022-12-18T01:33:58.473Z,14.75
2022-12-18T01:36:30.860Z,13.25
2022-12-18T01:39:00.145Z,13.85
2022-12-18T01:41:49.636Z,13.80
2022-12-18T01:44:48.470Z,14.57
2022-12-18T01:47:37.720Z,13.80
2022-12-18T01:50:13.902Z,16.80
2022-12-18T01:52:43.263Z,16.20
2022-12-18T01:55:11.489Z,14.50
2022-12-18T01:57:39.979Z,17.40
2022-12-18T02:00:13.826Z,15.95
2022-12-18T02:02:43.652Z,15.68
2022-12-18T02:05:13.669Z,15.02
2022-12-18T02:07:47.050Z,16.95
2022-12-18T02:10:14.780Z,16.85
2022-12-18T02:12:54.024Z,15.20
2022-12-18T02:16:00.764Z,15.68
2022-12-18T02:18:33.775Z,14.77
2022-12-18T02:21:20.446Z,13.82
2022-12-18T02:24:05.622Z,17.85
2022-12-18T02:26:56.753Z,15.88
2022-12-18T02:29:45.434Z,16.70
2022-12-18T02:32:17.921Z,18.08
2022-12-18T02:34:47.716Z,17.17
2022-12-18T02:37:18.765Z,18.52
2022-12-18T02:39:49.868Z,19.27
2022-12-18T02:42:18.765Z,17.77
2022-12-18T02:44:47.675Z,15.43
2022-12-18T02:47:21.338Z,17.17
2022-12-18T02:50:27.232Z,18.10
2022-12-18T02:53:20.823Z,16.48
2022-12-18T02:55:56.002Z,18.13
2022-12-18T02:58:50.553Z,16.42
2022-12-18T03:01:52.250Z,16.90
2022-12-18T03:04:31.624Z,17.98
2022-12-18T03:07:27.507Z,17.42
2022-12-18T03:09:57.539Z,17.45
2022-12-18T03:12:35.506Z,17.60
2022-12-18T03:15:19.742Z,16.30
2022-12-18T03:17:57.763Z,16.42
2022-12-18T03:20:30.163Z,16.08
2022-12-18T03:23:03.598Z,16.80
2022-12-18T03:25:32.901Z,16.60
2022-12-18T03:28:02.505Z,17.13
2022-12-18T03:30:33.119Z,16.95
2022-12-18T03:33:08.769Z,16.85
2022-12-18T03:35:42.753Z,15.07
2022-12-18T03:38:15.570Z,17.40
2022-12-18T03:41:28.617Z,18.63
2022-12-18T03:45:15.489Z,15.40
2022-12-18T03:48:15.897Z,17.17
2022-12-18T03:51:09.641Z,19.25
2022-12-18T03:54:11.133Z,15.68
2022-12-18T03:57:08.753Z,17.08
2022-12-18T03:59:37.939Z,18.67
2022-12-18T04:02:08.031Z,16.70
2022-12-18T04:04:38.345Z,17.25
2022-12-18T04:07:06.461Z,16.90
2022-12-18T04:09:37.095Z,17.05
2022-12-18T04:12:06.051Z,14.35
2022-12-18T04:14:36.687Z,15.50
2022-12-18T04:17:05.852Z,18.40
2022-12-18T04:19:41.339Z,16.58
2022-12-18T04:22:35.551Z,15.60
2022-12-18T04:25:02.869Z,13.40
2022-12-18T04:27:36.847Z,16.92
2022-12-18T04:30:06.062Z,14.88
2022-12-18T04:32:35.188Z,14.85
2022-12-18T04:35:05.180Z,15.93
2022-12-18T04:37:33.715Z,15.02
2022-12-18T04:40:38.906Z,14.95
2022-12-18T04:43:14.851Z,15.43
2022-12-18T04:46:07.965Z,15.27
2022-12-18T04:48:35.710Z,14.93
2022-12-18T04:51:26.130Z,17.83
2022-12-18T04:53:54.426Z,16.75
2022-12-18T04:56:21.754Z,16.33
2022-12-18T04:58:49.057Z,14.55
2022-12-18T05:01:18.467Z,15.88
2022-12-18T05:03:46.188Z,17.67
2022-12-18T05:06:23.802Z,14.35
2022-12-18T05:08:51.662Z,14.70
2022-12-18T05:11:18.992Z,14.40
2022-12-18T05:13:46.588Z,14.85
2022-12-18T05:16:15.245Z,14.20
2022-12-18T05:18:42.772Z,15.07
2022-12-18T05:21:09.802Z,14.18
2022-12-18T05:23:37.336Z,13.40
2022-12-18T05:26:07.364Z,13.00
2022-12-18T05:28:36.658Z,14.07
2022-12-18T05:31:05.595Z,15.38
2022-12-18T05:33:35.053Z,13.98
2022-12-18T05:36:04.456Z,15.45
2022-12-18T05:38:32.726Z,12.65
2022-12-18T05:40:59.695Z,15.15
2022-12-18T05:43:27.825Z,13.63
2022-12-18T05:45:55.698Z,15.15
2022-12-18T05:48:22.817Z,13.45
2022-12-18T05:50:51.393Z,13.35
2022-12-18T05:53:20.422Z,14.05
2022-12-18T05:55:48.094Z,14.57
2022-12-18T05:58:15.549Z,13.23
2022-12-18T06:00:45.976Z,13.65
2022-12-18T06:03:14.772Z,15.80
2022-12-18T06:05:46.324Z,17.48
2022-12-18T06:08:14.541Z,15.13
2022-12-18T06:10:43.121Z,15.07
2022-12-18T06:13:10.319Z,15.73
2022-12-18T06:15:38.468Z,14.82
2022-12-18T06:18:05.578Z,16.80
2022-12-18T06:20:33.831Z,15.65
2022-12-18T06:23:01.509Z,15.43
2022-12-18T06:25:28.736Z,15.70
2022-12-18T06:27:56.150Z,13.98
2022-12-18T06:30:23.651Z,16.05
2022-12-18T06:32:56.344Z,13.95
2022-12-18T06:35:25.500Z,14.82
2022-12-18T06:37:52.611Z,13.73
2022-12-18T06:40:19.867Z,13.35
2022-12-18T06:42:47.107Z,14.27
2022-12-18T06:45:14.291Z,12.80
2022-12-18T06:47:41.688Z,12.95
2022-12-18T06:50:08.817Z,13.23
2022-12-18T06:52:35.971Z,12.10
2022-12-18T06:55:02.961Z,13.90
2022-12-18T06:57:29.982Z,13.93
2022-12-18T07:00:00.294Z,12.35
2022-12-18T07:02:27.545Z,13.02
2022-12-18T07:04:55.099Z,14.07
2022-12-18T07:07:22.244Z,13.77
2022-12-18T07:09:51.311Z,13.75
2022-12-18T07:12:18.422Z,13.93
2022-12-18T07:14:45.428Z,13.05
2022-12-18T07:17:12.429Z,13.25
2022-12-18T07:19:39.435Z,12.63
2022-12-18T07:22:06.391Z,13.65
2022-12-18T07:24:35.107Z,13.07
2022-12-18T07:27:03.042Z,13.35
2022-12-18T07:29:29.962Z,13.77
2022-12-18T07:31:57.015Z,14.38
2022-12-18T07:34:24.356Z,13.90
2022-12-18T07:36:51.856Z,13.50
2022-12-18T07:39:18.911Z,13.27
2022-12-18T07:42:09.061Z,15.27
2022-12-18T07:44:36.246Z,16.27
2022-12-18T07:47:06.539Z,15.77
2022-12-18T07:49:36.045Z,18.00
2022-12-18T07:52:03.386Z,15.50
2022-12-18T07:54:30.479Z,20.33
2022-12-18T07:56:57.509Z,20.88
2022-12-18T07:59:24.753Z,17.80
2022-12-18T08:01:51.845Z,16.27
2022-12-18T08:04:18.924Z,14.25
2022-12-18T08:06:48.074Z,14.45
2022-12-18T08:09:15.623Z,14.52
2022-12-18T08:11:42.588Z,13.40
2022-12-18T08:14:09.746Z,13.38
2022-12-18T08:16:36.936Z,13.52
2022-12-18T08:19:04.039Z,13.27
2022-12-18T08:21:32.133Z,13.77
2022-12-18T08:24:01.749Z,13.57
2022-12-18T08:26:31.114Z,13.38
2022-12-18T08:29:00.415Z,13.32
2022-12-18T08:31:29.378Z,16.17
2022-12-18T08:33:57.531Z,15.95
2022-12-18T08:36:25.574Z,14.85
2022-12-18T08:38:53.840Z,16.55
2022-12-18T08:41:21.412Z,16.38
2022-12-18T08:44:06.965Z,15.43
2022-12-18T08:46:39.748Z,16.00
2022-12-18T08:49:08.228Z,15.15
2022-12-18T08:51:36.087Z,14.70
2022-12-18T08:54:04.351Z,15.30
2022-12-18T08:56:34.110Z,14.88
2022-12-18T08:59:01.926Z,15.80
2022-12-18T09:01:29.474Z,15.93
2022-12-18T09:03:56.817Z,18.05
2022-12-18T09:06:24.377Z,18.65
2022-12-18T09:08:51.592Z,19.63
2022-12-18T09:11:25.591Z,17.08
2022-12-18T09:13:53.871Z,15.82
2022-12-18T09:16:23.943Z,15.40
2022-12-18T09:19:00.211Z,16.27
2022-12-18T09:21:30.454Z,16.90
2022-12-18T09:23:58.003Z,15.15
2022-12-18T09:26:26.305Z,16.83
2022-12-18T09:28:56.030Z,16.52
2022-12-18T09:31:25.669Z,15.68
2022-12-18T09:33:52.744Z,15.25
2022-12-18T09:36:20.328Z,14.68
2022-12-18T09:38:49.045Z,14.13
2022-12-18T09:41:34.622Z,14.07
2022-12-18T09:44:11.083Z,12.60
2022-12-18T09:46:41.632Z,13.45
2022-12-18T09:49:15.715Z,13.15
2022-12-18T09:51:55.498Z,12.30
2022-12-18T09:54:34.030Z,11.85
2022-12-18T09:57:02.149Z,12.30
2022-12-18T09:59:41.127Z,11.45
2022-12-18T10:02:27.867Z,11.73
2022-12-18T10:05:01.234Z,11.02
2022-12-18T10:07:40.100Z,12.02
2022-12-18T10:10:24.082Z,11.48
2022-12-18T10:13:05.835Z,11.02
2022-12-18T10:16:05.156Z,12.90
2022-12-18T10:19:10.456Z,11.65
2022-12-18T10:21:43.684Z,12.35
2022-12-18T10:24:16.845Z,10.57
2022-12-18T10:26:44.922Z,11.70
2022-12-18T10:29:18.082Z,12.00
2022-12-18T10:31:45.317Z,11.90
2022-12-18T10:34:16.506Z,11.38
2022-12-18T10:36:43.840Z,11.82
2022-12-18T10:39:23.721Z,12.57
2022-12-18T10:41:50.840Z,10.77
2022-12-18T10:44:23.512Z,11.23
2022-12-18T10:47:10.100Z,11.43
2022-12-18T10:49:43.169Z,11.90
2022-12-18T10:52:25.613Z,11.70
2022-12-18T10:55:05.289Z,12.02
2022-12-18T10:57:42.591Z,11.48
2022-12-18T11:00:31.444Z,11.57
2022-12-18T11:02:59.023Z,12.95
2022-12-18T11:05:34.211Z,12.25
2022-12-18T11:08:02.046Z,11.70
2022-12-18T11:10:41.050Z,11.27
2022-12-18T11:13:19.682Z,11.60
2022-12-18T11:15:47.296Z,12.82
2022-12-18T11:18:27.217Z,12.50
2022-12-18T11:20:59.809Z,13.35
2022-12-18T11:23:28.038Z,13.32
2022-12-18T11:26:07.064Z,12.52
2022-12-18T11:28:45.536Z,12.95
2022-12-18T11:31:32.471Z,12.73
2022-12-18T11:36:49.529Z,11.95
2022-12-18T11:39:40.423Z,11.30
2022-12-18T11:42:26.729Z,12.95
2022-12-18T11:45:09.319Z,11.63
2022-12-18T11:47:55.650Z,12.48
2022-12-18T11:53:15.240Z,12.68
2022-12-18T11:56:01.673Z,12.70
2022-12-18T11:58:38.407Z,11.52
2022-12-18T12:01:24.679Z,11.43
2022-12-18T12:04:23.242Z,11.05
2022-12-18T12:07:01.496Z,12.07
2022-12-18T12:10:03.099Z,11.93
2022-12-18T12:12:49.360Z,12.38
2022-12-18T12:15:37.031Z,13.15
2022-12-18T12:18:25.435Z,11.52
2022-12-18T12:21:17.068Z,11.18
2022-12-18T12:24:06.618Z,11.45
2022-12-18T12:26:47.175Z,11.20
2022-12-18T12:29:26.804Z,11.85
2022-12-18T12:32:03.049Z,14.73
2022-12-18T12:34:39.204Z,12.88
2022-12-18T12:37:24.376Z,12.57
2022-12-18T12:39:56.147Z,12.18
2022-12-18T12:43:05.934Z,12.27
2022-12-18T12:45:46.447Z,11.27
2022-12-18T12:48:47.965Z,12.70
2022-12-18T12:51:27.062Z,12.52
2022-12-18T12:53:57.489Z,10.38
2022-12-18T12:56:31.109Z,11.18
2022-12-18T12:59:16.752Z,11.43
2022-12-18T13:02:12.501Z,10.70
2022-12-18T13:05:02.465Z,10.98
2022-12-18T13:07:38.819Z,12.35
2022-12-18T13:10:22.321Z,10.20
2022-12-18T13:12:57.075Z,10.10
2022-12-18T13:15:51.325Z,10.32
2022-12-18T13:18:22.163Z,9.82
2022-12-18T13:21:03.873Z,10.48
2022-12-18T13:23:50.874Z,10.77
2022-12-18T13:26:23.245Z,10.38
2022-12-18T13:28:57.163Z,11.48
2022-12-18T13:31:43.398Z,11.25
2022-12-18T13:34:30.901Z,10.80
2022-12-18T13:37:47.670Z,11.32
2022-12-18T13:40:41.312Z,10.02
2022-12-18T13:43:20.343Z,12.45
2022-12-18T13:46:00.565Z,12.60
2022-12-18T13:48:31.370Z,10.85
2022-12-18T13:51:08.235Z,11.70
2022-12-18T13:53:47.700Z,10.73
2022-12-18T13:56:25.649Z,12.00
2022-12-18T13:59:14.988Z,12.05
2022-12-18T14:02:11.350Z,11.00
2022-12-18T14:04:40.802Z,10.45
2022-12-18T14:07:26.454Z,11.20
2022-12-18T14:10:18.891Z,12.23
2022-12-18T14:13:03.104Z,13.55
2022-12-18T14:15:41.560Z,11.10
2022-12-18T14:18:26.965Z,11.98
2022-12-18T14:20:58.795Z,11.48
2022-12-18T14:23:36.697Z,11.23
2022-12-18T14:26:21.445Z,10.75
2022-12-18T14:28:48.669Z,10.77
2022-12-18T14:31:25.048Z,11.15
2022-12-18T14:33:53.795Z,12.13
2022-12-18T14:36:27.117Z,11.13
2022-12-18T14:38:56.388Z,10.80
2022-12-18T14:41:25.387Z,10.50
2022-12-18T14:43:54.971Z,11.05
2022-12-18T14:46:37.911Z,10.20
2022-12-18T14:49:19.889Z,10.18
2022-12-18T14:51:52.921Z,9.45
2022-12-18T14:54:21.939Z,9.32
2022-12-18T14:56:58.126Z,9.95
2022-12-18T14:59:26.347Z,10.43
2022-12-18T15:02:19.820Z,9.30
2022-12-18T15:04:47.450Z,9.88
2022-12-18T15:07:22.825Z,9.85
2022-12-18T15:10:08.888Z,9.57
2022-12-18T15:12:46.299Z,10.45
2022-12-18T15:15:52.717Z,9.25
2022-12-18T15:18:22.664Z,7.68
2022-12-18T15:21:00.537Z,8.02
2022-12-18T15:23:32.074Z,9.32
2022-12-18T15:26:04.196Z,9.13
2022-12-18T15:28:39.101Z,10.65
2022-12-18T15:31:10.889Z,9.23
2022-12-18T15:33:40.670Z,10.43
2022-12-18T15:36:14.344Z,11.02
2022-12-18T15:38:42.307Z,10.98
2022-12-18T15:41:24.190Z,11.80
2022-12-18T15:43:53.429Z,9.93
2022-12-18T15:46:22.702Z,9.93
2022-12-18T15:49:01.829Z,10.68
2022-12-18T15:51:36.839Z,8.80
2022-12-18T15:54:07.300Z,10.75
2022-12-18T15:56:53.010Z,10.32
2022-12-18T15:59:22.730Z,9.25
2022-12-18T16:01:52.363Z,10.63
2022-12-18T16:04:21.836Z,10.13
2022-12-18T16:09:40.763Z,9.77
2022-12-18T16:12:18.709Z,9.35
2022-12-18T16:14:46.031Z,9.82
2022-12-18T16:17:14.311Z,10.10
2022-12-18T16:19:41.820Z,9.90
2022-12-18T16:22:23.683Z,10.00
2022-12-18T16:24:52.629Z,9.68
2022-12-18T16:27:20.041Z,10.60
2022-12-18T16:29:47.763Z,10.50
2022-12-18T16:32:23.525Z,8.65
2022-12-18T16:34:51.766Z,9.55
2022-12-18T16:37:18.855Z,9.35
2022-12-18T16:39:46.079Z,8.63
2022-12-18T16:42:17.308Z,8.82
2022-12-18T16:44:46.163Z,9.15
2022-12-18T16:47:15.040Z,9.55
2022-12-18T16:49:43.246Z,9.35
2022-12-18T16:52:10.264Z,11.02
2022-12-18T16:54:37.606Z,11.75
2022-12-18T16:57:07.651Z,12.35
2022-12-18T16:59:34.687Z,16.60
2022-12-18T17:02:06.328Z,14.75
2022-12-18T17:04:35.042Z,16.52
2022-12-18T17:07:02.460Z,14.25
2022-12-18T17:09:29.581Z,12.50
2022-12-18T17:11:56.713Z,14.70
2022-12-18T17:14:25.030Z,13.38
2022-12-18T17:17:19.926Z,10.05
2022-12-18T17:19:43.509Z,13.93
2022-12-18T17:22:11.251Z,13.40
2022-12-18T17:24:38.564Z,12.27
2022-12-18T17:27:05.905Z,12.52
2022-12-18T17:29:32.990Z,12.05
2022-12-18T17:32:00.654Z,10.93
2022-12-18T17:34:28.734Z,12.30
2022-12-18T17:36:57.163Z,11.43
2022-12-18T17:39:24.313Z,13.52
2022-12-18T17:41:51.541Z,11.25
2022-12-18T17:44:18.840Z,13.25
2022-12-18T17:46:46.621Z,13.93
2022-12-18T17:49:14.194Z,13.18
2022-12-18T17:51:43.209Z,13.43
2022-12-18T17:54:11.141Z,13.02
2022-12-18T17:56:39.256Z,11.48
2022-12-18T17:59:07.253Z,13.20
2022-12-18T18:01:38.521Z,15.55
2022-12-18T18:04:08.249Z,14.02
2022-12-18T18:06:38.847Z,13.18
2022-12-18T18:09:16.105Z,14.07
2022-12-18T18:12:05.505Z,13.60
2022-12-18T18:14:33.619Z,15.20
2022-12-18T18:17:04.779Z,15.18
2022-12-18T18:19:33.738Z,12.57
2022-12-18T18:22:02.929Z,11.40
2022-12-18T18:24:30.429Z,13.18
2022-12-18T18:26:59.687Z,13.07
2022-12-18T18:29:29.197Z,12.98
2022-12-18T18:31:56.578Z,13.77
2022-12-18T18:34:30.285Z,12.02
2022-12-18T18:37:01.669Z,12.95
2022-12-18T18:39:29.049Z,11.90
2022-12-18T18:41:58.943Z,12.20
2022-12-18T18:44:26.609Z,12.82
2022-12-18T18:46:58.432Z,13.98
2022-12-18T18:49:28.013Z,12.10
2022-12-18T18:51:57.117Z,12.18
2022-12-18T18:54:24.959Z,12.98
2022-12-18T18:59:39.165Z,17.17
2022-12-18T19:02:09.013Z,13.98
2022-12-18T19:04:38.463Z,11.98
2022-12-18T19:07:15.034Z,12.63
2022-12-18T19:09:52.253Z,11.90
2022-12-18T19:12:37.810Z,12.52
2022-12-18T19:15:07.975Z,10.95
2022-12-18T19:17:36.600Z,11.38
2022-12-18T19:20:05.173Z,11.23
2022-12-18T19:22:32.239Z,11.18
2022-12-18T19:24:59.923Z,11.40
2022-12-18T19:27:27.081Z,12.73
2022-12-18T19:29:54.387Z,12.57
2022-12-18T19:32:21.595Z,10.52
2022-12-18T19:34:48.736Z,11.90
2022-12-18T19:37:16.994Z,12.18
2022-12-18T19:39:44.131Z,12.50
2022-12-18T19:42:11.045Z,13.02
2022-12-18T19:44:38.246Z,11.98
2022-12-18T19:47:05.270Z,12.07
2022-12-18T19:49:33.170Z,12.30
2022-12-18T19:52:02.622Z,13.73
2022-12-18T19:54:31.107Z,12.50
2022-12-18T19:56:58.009Z,13.10
2022-12-18T19:59:25.009Z,13.90
2022-12-18T20:01:54.559Z,13.20
2022-12-18T20:04:21.790Z,12.13
2022-12-18T20:06:52.631Z,11.82
2022-12-18T20:09:21.262Z,13.05
2022-12-18T20:11:49.377Z,13.85
2022-12-18T20:14:19.625Z,13.38
2022-12-18T20:16:52.024Z,13.32
2022-12-18T20:19:19.975Z,11.88
2022-12-18T20:21:48.977Z,13.73
2022-12-18T20:24:16.087Z,12.57
2022-12-18T20:26:43.703Z,12.05
2022-12-18T20:29:10.678Z,12.75
2022-12-18T20:31:37.828Z,11.70
2022-12-18T20:34:06.052Z,11.95
2022-12-18T20:36:36.222Z,13.15
2022-12-18T20:39:06.522Z,13.20
2022-12-18T20:41:38.767Z,12.43
2022-12-18T20:44:10.961Z,13.65
2022-12-18T20:46:51.325Z,11.27
2022-12-18T20:49:18.515Z,12.48
2022-12-18T20:51:45.847Z,12.70
2022-12-18T20:54:12.798Z,12.20
2022-12-18T20:56:39.775Z,11.90
2022-12-18T20:59:07.362Z,11.27
2022-12-18T21:01:34.455Z,11.00
2022-12-18T21:04:02.842Z,12.43
2022-12-18T21:06:29.998Z,10.32
2022-12-18T21:08:57.004Z,10.57
2022-12-18T21:11:47.910Z,10.65
2022-12-18T21:14:19.848Z,11.45
2022-12-18T21:16:47.812Z,10.15
2022-12-18T21:19:20.541Z,9.45
2022-12-18T21:21:47.776Z,11.63
2022-12-18T21:24:15.140Z,11.35
2022-12-18T21:26:47.235Z,10.70
2022-12-18T21:29:25.676Z,12.43
2022-12-18T21:31:54.652Z,12.10
2022-12-18T21:34:30.542Z,11.48
2022-12-18T21:36:59.289Z,10.93
2022-12-18T21:39:27.568Z,10.60
2022-12-18T21:42:13.781Z,10.88
2022-12-18T21:44:42.468Z,11.45
2022-12-18T21:47:16.889Z,11.35
2022-12-18T21:49:50.113Z,12.15
2022-12-18T21:52:17.135Z,10.70
2022-12-18T21:54:44.247Z,11.18
2022-12-18T21:57:13.435Z,12.52
2022-12-18T21:59:42.590Z,12.75
2022-12-18T22:02:17.318Z,12.30
2022-12-18T22:04:45.489Z,10.45
2022-12-18T22:07:14.059Z,13.00
2022-12-18T22:09:42.744Z,12.25
2022-12-18T22:12:12.745Z,14.07
2022-12-18T22:14:39.762Z,13.85
2022-12-18T22:17:06.806Z,13.77
2022-12-18T22:19:38.109Z,13.75
2022-12-18T22:22:09.713Z,13.23
2022-12-18T22:24:36.651Z,14.52
2022-12-18T22:27:03.651Z,14.68
2022-12-18T22:29:49.799Z,13.93
2022-12-18T22:32:21.283Z,12.07
2022-12-18T22:35:04.860Z,14.75
2022-12-18T22:37:34.200Z,12.73
2022-12-18T22:40:03.290Z,14.27
2022-12-18T22:42:31.581Z,12.73
2022-12-18T22:45:01.123Z,14.77
2022-12-18T22:47:30.416Z,12.88
2022-12-18T22:49:58.286Z,13.90
2022-12-18T22:52:25.815Z,15.13
2022-12-18T22:54:54.102Z,14.20
2022-12-18T22:57:22.946Z,13.90
2022-12-18T22:59:51.132Z,13.95
2022-12-18T23:02:19.299Z,13.43
2022-12-18T23:04:47.743Z,14.82
2022-12-18T23:07:15.659Z,12.85
2022-12-18T23:09:42.925Z,13.60
2022-12-18T23:12:17.308Z,12.10
2022-12-18T23:14:44.549Z,11.18
2022-12-18T23:17:11.614Z,12.63
2022-12-18T23:19:39.368Z,12.35
2022-12-18T23:22:11.799Z,13.52
2022-12-18T23:24:39.563Z,13.65
2022-12-18T23:27:09.418Z,12.10
2022-12-18T23:29:40.215Z,12.77
2022-12-18T23:32:07.642Z,13.10
2022-12-18T23:34:34.836Z,12.60
2022-12-18T23:37:04.035Z,12.20
2022-12-18T23:39:31.119Z,11.98
2022-12-18T23:41:59.268Z,14.75
2022-12-18T23:44:26.642Z,13.93
2022-12-18T23:46:53.723Z,14.48
2022-12-18T23:49:20.759Z,15.13
2022-12-18T23:51:47.800Z,13.40
2022-12-18T23:54:14.709Z,15.10
2022-12-18T23:56:41.663Z,13.80
2022-12-18T23:59:08.666Z,14.82
